Time;durP1;ratioP1;P1;durP2;ratioP2;P2;SDS_P1;SDS_P2;PMS_P1;PMS_P2;Temp;Humidity;BMP_temperature;BMP_pressure;BME280_temperature;BME280_humidity;BME280_pressure;Samples;Min_cycle;Max_cycle;Signal;HPM_P1;HPM_P2
2021/06/11 00:02:17;;;;;;;1.00;0.90;;;26.50;44.20;;;;;;5094643;28;20035;-53
2021/06/11 00:04:43;;;;;;;2.58;1.00;;;26.50;44.20;;;;;;5095878;28;20032;-52
2021/06/11 00:07:09;;;;;;;2.53;0.90;;;26.40;44.20;;;;;;5095835;28;20028;-55
2021/06/11 00:09:35;;;;;;;1.13;0.82;;;26.50;44.30;;;;;;5095907;28;20473;-48
2021/06/11 00:12:01;;;;;;;1.50;1.00;;;26.40;44.30;;;;;;5095863;28;20044;-49
2021/06/11 00:14:27;;;;;;;1.10;1.00;;;26.40;44.30;;;;;;5095313;28;20027;-54
2021/06/11 00:16:53;;;;;;;1.45;0.90;;;26.40;44.40;;;;;;5095690;28;20465;-54
2021/06/11 00:19:19;;;;;;;1.40;0.90;;;26.40;44.40;;;;;;5095622;28;20082;-54
2021/06/11 00:21:44;;;;;;;0.88;0.85;;;26.40;44.50;;;;;;5095957;28;20355;-52
2021/06/11 00:24:10;;;;;;;1.13;0.82;;;26.40;44.50;;;;;;5095400;28;20024;-50
2021/06/11 00:26:36;;;;;;;0.80;0.73;;;26.40;44.60;;;;;;5096011;28;20024;-51
2021/06/11 00:29:02;;;;;;;1.60;1.02;;;26.40;44.60;;;;;;5095022;28;20020;-47
2021/06/11 00:31:28;;;;;;;0.98;0.80;;;26.40;44.60;;;;;;5095550;28;20028;-53
2021/06/11 00:33:54;;;;;;;0.80;0.80;;;26.40;44.70;;;;;;5095062;28;20126;-54
2021/06/11 00:36:20;;;;;;;1.75;1.05;;;26.40;44.70;;;;;;5095510;28;20032;-53
2021/06/11 00:38:45;;;;;;;0.70;0.70;;;26.40;44.80;;;;;;5095177;28;20047;-51
2021/06/11 00:41:11;;;;;;;1.30;1.00;;;26.40;44.80;;;;;;5094727;28;20181;-55
2021/06/11 00:43:37;;;;;;;1.20;0.75;;;26.40;44.90;;;;;;5094527;28;20035;-51
2021/06/11 00:46:03;;;;;;;0.77;0.77;;;26.30;44.80;;;;;;5094863;28;20474;-52
2021/06/11 00:48:29;;;;;;;1.00;0.90;;;26.30;44.90;;;;;;5095109;28;20034;-50
2021/06/11 00:50:54;;;;;;;0.93;0.90;;;26.30;44.90;;;;;;5094876;28;20040;-54
2021/06/11 00:53:20;;;;;;;1.02;0.77;;;26.30;45.00;;;;;;5094845;28;20359;-51
2021/06/11 00:55:46;;;;;;;1.50;1.10;;;26.30;45.00;;;;;;5093844;28;20063;-51
2021/06/11 00:58:13;;;;;;;1.02;0.95;;;26.30;45.00;;;;;;5094869;28;20028;-51
2021/06/11 01:00:39;;;;;;;1.10;1.00;;;26.30;45.10;;;;;;5094521;28;20032;-51
2021/06/11 01:03:09;;;;;;;1.20;1.02;;;26.30;45.10;;;;;;5094717;28;20020;-55
2021/06/11 01:05:35;;;;;;;1.25;0.88;;;26.30;45.20;;;;;;5094503;28;20043;-52
2021/06/11 01:08:03;;;;;;;1.88;1.00;;;26.30;45.20;;;;;;5094838;28;20032;-54
2021/06/11 01:10:29;;;;;;;1.20;0.90;;;26.30;45.20;;;;;;5094029;28;20040;-49
2021/06/11 01:12:56;;;;;;;1.00;0.90;;;26.30;45.30;;;;;;5093941;28;20179;-51
2021/06/11 01:15:23;;;;;;;0.85;0.85;;;26.30;45.30;;;;;;5094265;28;20028;-54
2021/06/11 01:17:49;;;;;;;0.88;0.85;;;26.30;45.40;;;;;;5094644;28;20043;-52
2021/06/11 01:20:17;;;;;;;1.20;1.10;;;26.30;45.40;;;;;;5093865;28;20039;-49
2021/06/11 01:22:55;;;;;;;1.10;0.90;;;26.30;45.40;;;;;;5094338;28;20411;-53
2021/06/11 01:25:52;;;;;;;1.15;1.05;;;26.30;45.50;;;;;;5094419;28;20093;-51
2021/06/11 01:28:21;;;;;;;1.05;0.95;;;26.30;45.50;;;;;;5077100;28;20123;-55
2021/06/11 01:30:49;;;;;;;1.50;0.93;;;26.30;45.50;;;;;;5093766;28;20035;-51
2021/06/11 01:33:17;;;;;;;1.00;0.90;;;26.20;45.60;;;;;;5093733;28;20418;-49
2021/06/11 01:35:50;;;;;;;1.50;1.00;;;26.20;45.60;;;;;;5094066;28;20039;-57
2021/06/11 01:38:26;;;;;;;1.20;1.00;;;26.20;45.60;;;;;;5094326;28;20432;-53
2021/06/11 01:40:54;;;;;;;1.73;1.10;;;26.20;45.70;;;;;;5093275;28;20032;-52
2021/06/11 01:43:22;;;;;;;0.98;0.90;;;26.20;45.70;;;;;;5093616;28;20039;-51
2021/06/11 01:45:48;;;;;;;1.33;1.10;;;26.20;45.70;;;;;;5093770;28;20028;-54
2021/06/11 01:48:17;;;;;;;1.05;0.90;;;26.20;45.70;;;;;;5093321;28;20024;-54
2021/06/11 01:50:44;;;;;;;1.27;1.17;;;26.20;45.70;;;;;;5093922;28;20055;-49
2021/06/11 01:53:12;;;;;;;2.85;1.08;;;26.20;45.70;;;;;;5093585;28;20051;-53
2021/06/11 01:55:40;;;;;;;1.20;1.10;;;26.20;45.80;;;;;;5091261;28;20375;-55
2021/06/11 01:58:06;;;;;;;1.60;1.30;;;26.20;45.80;;;;;;5092881;28;20125;-50
2021/06/11 02:00:33;;;;;;;1.10;1.00;;;26.20;46.40;;;;;;5093478;28;20024;-54
2021/06/11 02:03:01;;;;;;;1.00;0.90;;;26.20;45.80;;;;;;5093031;28;20110;-55
2021/06/11 02:05:27;;;;;;;1.00;0.82;;;26.20;45.80;;;;;;5092214;28;20043;-54
2021/06/11 02:07:54;;;;;;;1.10;1.00;;;26.20;45.80;;;;;;5093980;28;20027;-51
2021/06/11 02:10:22;;;;;;;1.25;1.00;;;26.20;45.80;;;;;;5093455;28;20127;-53
2021/06/11 02:12:49;;;;;;;1.40;1.13;;;26.10;45.80;;;;;;5076254;28;20040;-50
2021/06/11 02:15:16;;;;;;;1.33;1.20;;;26.20;45.80;;;;;;5073652;28;20173;-54
2021/06/11 02:17:45;;;;;;;1.00;0.90;;;26.10;45.80;;;;;;5092097;28;20597;-54
2021/06/11 02:20:15;;;;;;;1.67;1.10;;;26.10;45.80;;;;;;5093061;28;20047;-51
2021/06/11 02:22:42;;;;;;;0.95;0.82;;;26.20;45.90;;;;;;5092480;28;20031;-52
2021/06/11 02:25:10;;;;;;;1.25;1.15;;;26.10;45.80;;;;;;5093911;28;20079;-54
2021/06/11 02:27:37;;;;;;;1.30;1.05;;;26.10;45.80;;;;;;5093338;28;20059;-52
2021/06/11 02:30:15;;;;;;;2.00;1.20;;;26.10;45.90;;;;;;5093247;28;20032;-52
2021/06/11 02:32:41;;;;;;;2.05;1.20;;;26.10;45.90;;;;;;5093036;28;20031;-53
2021/06/11 02:35:19;;;;;;;1.17;1.02;;;26.10;45.90;;;;;;5093128;28;20032;-54
2021/06/11 02:37:46;;;;;;;1.20;1.10;;;26.10;45.90;;;;;;5092929;28;20039;-52
2021/06/11 02:40:12;;;;;;;1.27;1.17;;;26.10;45.90;;;;;;5093530;28;20036;-54
2021/06/11 02:42:39;;;;;;;1.70;1.17;;;26.10;45.90;;;;;;5093271;28;20107;-51
2021/06/11 02:45:13;;;;;;;1.27;1.15;;;26.10;45.90;;;;;;5091364;28;20127;-51
2021/06/11 02:47:45;;;;;;;3.97;1.20;;;26.10;45.90;;;;;;5093082;28;20439;-55
2021/06/11 02:50:17;;;;;;;1.42;1.20;;;26.10;45.90;;;;;;5079305;28;20119;-54
2021/06/11 02:52:50;;;;;;;1.42;1.10;;;26.10;45.90;;;;;;5093078;28;20036;-50
2021/06/11 02:55:19;;;;;;;1.50;1.20;;;26.10;45.90;;;;;;5093209;28;20078;-52
2021/06/11 02:58:06;;;;;;;1.42;1.15;;;26.00;45.90;;;;;;5093122;28;20024;-51
2021/06/11 03:00:32;;;;;;;2.20;1.30;;;26.10;46.00;;;;;;5094063;28;20028;-53
2021/06/11 03:03:04;;;;;;;1.40;1.30;;;26.00;45.90;;;;;;5097189;28;20036;-51
2021/06/11 03:05:31;;;;;;;1.30;1.20;;;26.00;45.90;;;;;;5084221;28;20051;-54
2021/06/11 03:07:59;;;;;;;2.20;1.52;;;26.00;45.90;;;;;;5097216;28;20034;-53
2021/06/11 03:10:30;;;;;;;1.48;1.38;;;26.00;46.00;;;;;;5096388;28;20094;-48
2021/06/11 03:13:01;;;;;;;3.22;1.75;;;26.00;46.00;;;;;;5096867;28;20047;-49
2021/06/11 03:15:29;;;;;;;1.60;1.50;;;26.00;46.00;;;;;;5096115;28;20085;-49
2021/06/11 03:17:59;;;;;;;1.60;1.45;;;26.00;46.10;;;;;;5095090;28;20058;-51
2021/06/11 03:20:30;;;;;;;1.55;1.45;;;26.00;46.10;;;;;;5096609;28;20371;-52
2021/06/11 03:23:08;;;;;;;3.35;1.40;;;25.90;46.00;;;;;;5096668;28;20039;-52
2021/06/11 03:26:02;;;;;;;1.80;1.65;;;26.00;46.10;;;;;;5096721;28;20043;-54
2021/06/11 03:28:49;;;;;;;1.70;1.40;;;26.00;46.10;;;;;;5096492;28;20054;-52
2021/06/11 03:31:29;;;;;;;1.67;1.40;;;25.90;46.00;;;;;;5096126;28;20075;-54
2021/06/11 03:34:01;;;;;;;1.63;1.52;;;25.90;46.10;;;;;;5095825;28;20448;-53
2021/06/11 03:36:40;;;;;;;1.75;1.50;;;25.90;46.10;;;;;;5096895;28;20160;-52
2021/06/11 03:39:13;;;;;;;1.83;1.70;;;25.90;46.10;;;;;;5095959;28;20028;-51
2021/06/11 03:41:40;;;;;;;1.40;1.30;;;25.90;46.20;;;;;;5096080;28;20035;-49
2021/06/11 03:44:09;;;;;;;1.48;1.38;;;25.90;46.20;;;;;;5096318;28;20034;-52
2021/06/11 03:46:38;;;;;;;1.92;1.60;;;25.90;46.20;;;;;;5095775;28;20446;-54
2021/06/11 03:49:04;;;;;;;1.63;1.52;;;25.90;46.20;;;;;;5095065;28;20028;-55
2021/06/11 03:51:31;;;;;;;1.80;1.55;;;25.90;46.30;;;;;;5095467;28;20036;-50
2021/06/11 03:53:58;;;;;;;2.20;1.80;;;25.90;46.30;;;;;;5096056;28;20131;-51
2021/06/11 03:56:26;;;;;;;1.70;1.60;;;25.90;46.30;;;;;;5095974;28;20342;-52
2021/06/11 03:58:54;;;;;;;1.40;1.30;;;26.00;46.30;;;;;;5095464;28;20415;-51
2021/06/11 04:01:23;;;;;;;1.90;1.70;;;26.00;46.40;;;;;;5095962;28;20054;-54
2021/06/11 04:03:50;;;;;;;2.13;1.70;;;26.00;46.40;;;;;;5095637;28;20134;-52
2021/06/11 04:06:20;;;;;;;1.65;1.55;;;25.90;46.40;;;;;;5095655;28;20032;-55
2021/06/11 04:08:50;;;;;;;2.00;1.85;;;25.90;46.40;;;;;;5095734;28;20032;-53
2021/06/11 04:11:21;;;;;;;1.58;1.40;;;25.90;46.40;;;;;;5094955;28;20063;-52
2021/06/11 04:14:06;;;;;;;2.00;1.60;;;25.90;46.40;;;;;;5095303;28;20134;-53
2021/06/11 04:16:49;;;;;;;1.40;1.30;;;25.90;46.40;;;;;;5095521;28;20028;-55
2021/06/11 04:19:24;;;;;;;1.80;1.50;;;25.90;46.40;;;;;;5094941;28;20103;-50
2021/06/11 04:21:54;;;;;;;1.45;1.35;;;25.90;46.40;;;;;;5095199;28;20556;-48
2021/06/11 04:24:26;;;;;;;1.70;1.50;;;25.90;46.50;;;;;;5095034;28;20032;-50
2021/06/11 04:26:55;;;;;;;2.30;1.67;;;25.90;46.50;;;;;;5095465;28;20035;-54
2021/06/11 04:29:22;;;;;;;1.73;1.63;;;25.90;46.50;;;;;;5095234;28;20076;-49
2021/06/11 04:31:52;;;;;;;1.40;1.30;;;25.90;46.50;;;;;;5095158;28;20107;-52
2021/06/11 04:34:18;;;;;;;2.75;1.70;;;25.90;46.50;;;;;;5094778;28;20047;-54
2021/06/11 04:36:45;;;;;;;1.77;1.48;;;25.90;46.50;;;;;;5095405;28;20126;-50
2021/06/11 04:39:12;;;;;;;1.45;1.35;;;25.90;46.50;;;;;;5094894;28;20036;-50
2021/06/11 04:41:39;;;;;;;2.15;1.80;;;25.90;46.60;;;;;;5093879;28;20177;-54
2021/06/11 04:44:06;;;;;;;2.17;1.58;;;25.90;46.60;;;;;;5094675;28;20478;-54
2021/06/11 04:46:32;;;;;;;1.88;1.73;;;25.90;46.60;;;;;;5094936;28;20343;-51
2021/06/11 04:48:57;;;;;;;1.83;1.73;;;25.90;46.70;;;;;;5094723;28;20031;-54
2021/06/11 04:51:24;;;;;;;1.80;1.70;;;25.90;46.70;;;;;;5094772;28;20028;-54
2021/06/11 04:53:49;;;;;;;1.80;1.52;;;25.90;46.70;;;;;;5094595;28;20082;-54
2021/06/11 04:56:16;;;;;;;1.60;1.45;;;25.90;46.70;;;;;;5094194;28;20043;-53
2021/06/11 04:58:43;;;;;;;1.92;1.73;;;25.90;46.70;;;;;;5091179;28;20439;-56
2021/06/11 05:01:09;;;;;;;2.03;1.50;;;25.90;46.80;;;;;;5074749;28;20049;-53
2021/06/11 05:03:36;;;;;;;1.55;1.45;;;25.90;46.70;;;;;;5077642;28;20103;-55
2021/06/11 05:06:04;;;;;;;1.90;1.60;;;25.90;46.80;;;;;;5093043;28;20066;-54
2021/06/11 05:08:30;;;;;;;1.67;1.58;;;25.90;46.80;;;;;;5093763;28;20040;-49
2021/06/11 05:10:56;;;;;;;1.38;1.23;;;25.90;46.80;;;;;;5092700;28;20040;-55
2021/06/11 05:13:23;;;;;;;2.00;1.80;;;25.90;46.80;;;;;;5094628;28;20107;-48
2021/06/11 05:15:49;;;;;;;1.92;1.73;;;25.90;46.80;;;;;;5092802;28;20031;-49
2021/06/11 05:18:15;;;;;;;1.98;1.63;;;25.90;46.80;;;;;;5094632;28;20332;-52
2021/06/11 05:20:41;;;;;;;1.65;1.55;;;25.90;46.80;;;;;;5094497;28;20028;-54
2021/06/11 05:23:07;;;;;;;2.30;1.75;;;25.90;46.90;;;;;;5093583;28;20474;-53
2021/06/11 05:25:34;;;;;;;2.55;1.90;;;25.90;46.90;;;;;;5094286;28;20036;-52
2021/06/11 05:28:00;;;;;;;3.72;2.05;;;25.90;46.90;;;;;;5094619;28;20033;-52
2021/06/11 05:30:27;;;;;;;1.52;1.40;;;25.90;47.00;;;;;;5093644;28;20359;-52
2021/06/11 05:32:54;;;;;;;2.30;1.88;;;25.90;47.00;;;;;;5094512;28;20408;-54
2021/06/11 05:35:20;;;;;;;1.88;1.70;;;25.90;47.00;;;;;;5093996;28;20042;-53
2021/06/11 05:37:46;;;;;;;2.42;1.77;;;25.90;47.10;;;;;;5094473;28;20027;-52
2021/06/11 05:40:12;;;;;;;1.80;1.70;;;25.90;47.10;;;;;;5093138;28;20063;-52
2021/06/11 05:42:38;;;;;;;1.90;1.67;;;25.90;47.20;;;;;;5093993;28;20028;-51
2021/06/11 05:45:06;;;;;;;1.65;1.55;;;25.90;47.20;;;;;;5082857;28;20051;-53
2021/06/11 05:47:31;;;;;;;2.30;1.80;;;25.90;47.30;;;;;;5086190;28;20127;-49
2021/06/11 05:49:57;;;;;;;1.73;1.63;;;25.90;47.30;;;;;;5093784;28;20127;-55
2021/06/11 05:52:23;;;;;;;1.60;1.50;;;25.90;47.30;;;;;;5093871;28;20031;-51
2021/06/11 05:54:49;;;;;;;2.17;1.75;;;25.90;47.40;;;;;;5093654;28;20422;-52
2021/06/11 05:57:14;;;;;;;2.60;1.50;;;25.90;47.40;;;;;;5094211;28;20389;-49
2021/06/11 05:59:40;;;;;;;1.80;1.50;;;25.90;47.40;;;;;;5093507;28;20046;-52
2021/06/11 06:02:06;;;;;;;1.90;1.33;;;25.90;47.40;;;;;;5091406;28;20078;-52
2021/06/11 06:04:32;;;;;;;2.65;1.50;;;25.90;47.40;;;;;;5094029;28;20137;-50
2021/06/11 06:06:58;;;;;;;1.85;1.52;;;25.90;47.40;;;;;;5093322;28;20601;-52
2021/06/11 06:09:24;;;;;;;1.90;1.70;;;25.90;47.40;;;;;;5094246;28;20032;-52
2021/06/11 06:11:51;;;;;;;2.35;1.50;;;25.90;47.50;;;;;;5092067;28;20411;-53
2021/06/11 06:14:17;;;;;;;2.47;1.92;;;25.90;47.50;;;;;;5093645;28;20040;-54
2021/06/11 06:16:43;;;;;;;1.73;1.50;;;25.90;47.50;;;;;;5092659;28;20042;-53
2021/06/11 06:19:09;;;;;;;1.42;1.33;;;25.90;47.50;;;;;;5093744;28;20141;-49
2021/06/11 06:21:35;;;;;;;1.40;1.27;;;25.90;47.60;;;;;;5088517;28;20035;-51
2021/06/11 06:24:01;;;;;;;1.80;1.55;;;25.90;47.60;;;;;;5093734;28;20042;-50
2021/06/11 06:26:27;;;;;;;1.80;1.50;;;25.90;47.60;;;;;;5093292;28;20045;-52
2021/06/11 06:28:54;;;;;;;2.05;1.58;;;25.90;47.60;;;;;;5093560;28;20028;-50
2021/06/11 06:31:20;;;;;;;2.28;1.58;;;25.90;47.70;;;;;;5093162;28;20040;-51
2021/06/11 06:33:46;;;;;;;1.58;1.17;;;25.90;47.70;;;;;;5092591;28;20457;-50
2021/06/11 06:36:12;;;;;;;2.35;1.50;;;25.90;47.70;;;;;;5097509;28;20035;-49
2021/06/11 06:38:38;;;;;;;2.13;1.33;;;25.90;47.70;;;;;;5096700;28;20035;-51
2021/06/11 06:41:06;;;;;;;1.70;1.50;;;25.90;47.70;;;;;;5097652;28;20028;-48
2021/06/11 06:43:32;;;;;;;2.15;1.45;;;25.90;47.80;;;;;;5093521;28;20032;-52
2021/06/11 06:45:59;;;;;;;1.17;1.08;;;25.90;47.80;;;;;;5095623;28;20027;-52
2021/06/11 06:48:25;;;;;;;1.08;0.98;;;25.90;48.40;;;;;;5096180;28;20096;-53
2021/06/11 06:50:54;;;;;;;1.55;1.30;;;25.90;47.80;;;;;;5096622;28;20086;-50
2021/06/11 06:53:20;;;;;;;1.90;1.25;;;26.00;47.80;;;;;;5086499;28;20051;-53
2021/06/11 06:55:46;;;;;;;1.40;1.00;;;26.00;47.80;;;;;;5085562;28;20129;-50
2021/06/11 06:58:12;;;;;;;1.60;1.10;;;26.00;47.70;;;;;;5084817;28;20032;-54
2021/06/11 07:00:38;;;;;;;1.60;1.13;;;26.10;47.80;;;;;;5089137;28;20081;-54
2021/06/11 07:03:04;;;;;;;1.55;0.90;;;26.10;47.70;;;;;;5094734;28;20050;-51
2021/06/11 07:05:30;;;;;;;1.65;1.30;;;26.10;47.70;;;;;;5096941;28;20032;-51
2021/06/11 07:07:56;;;;;;;2.78;1.25;;;26.10;47.70;;;;;;5091714;28;20497;-51
2021/06/11 07:10:23;;;;;;;1.17;1.08;;;26.10;47.60;;;;;;5081898;28;20044;-52
2021/06/11 07:12:49;;;;;;;1.38;1.23;;;26.10;47.60;;;;;;5088197;28;20055;-51
2021/06/11 07:15:15;;;;;;;1.83;1.30;;;26.10;47.60;;;;;;5090216;28;20502;-51
2021/06/11 07:17:41;;;;;;;1.77;1.50;;;26.10;47.50;;;;;;5096556;28;20040;-55
2021/06/11 07:20:08;;;;;;;1.95;1.50;;;26.20;47.60;;;;;;5095392;28;20020;-52
2021/06/11 07:22:34;;;;;;;4.28;1.80;;;26.20;47.60;;;;;;5094765;28;20039;-53
2021/06/11 07:25:04;;;;;;;2.42;1.90;;;26.20;47.60;;;;;;5095415;28;20024;-50
2021/06/11 07:27:32;;;;;;;3.15;2.10;;;26.20;47.50;;;;;;5095077;28;20032;-55
2021/06/11 07:29:59;;;;;;;2.58;2.00;;;26.20;47.50;;;;;;5094668;28;20071;-52
2021/06/11 07:32:25;;;;;;;2.45;2.03;;;26.30;47.50;;;;;;5095243;28;20040;-52
2021/06/11 07:34:51;;;;;;;2.70;2.22;;;26.30;47.50;;;;;;5095826;28;20102;-53
2021/06/11 07:37:17;;;;;;;2.78;2.38;;;26.30;47.50;;;;;;5094711;28;20110;-52
2021/06/11 07:39:43;;;;;;;2.78;2.55;;;26.30;47.50;;;;;;5095290;28;20415;-52
2021/06/11 07:42:12;;;;;;;3.20;2.88;;;26.30;47.50;;;;;;5094802;28;20081;-54
2021/06/11 07:44:39;;;;;;;3.53;3.00;;;26.30;47.50;;;;;;5094615;28;20032;-52
2021/06/11 07:47:06;;;;;;;3.55;3.17;;;26.30;47.50;;;;;;5092245;28;20056;-54
2021/06/11 07:49:32;;;;;;;3.53;3.22;;;26.30;47.50;;;;;;5095208;28;20086;-52
2021/06/11 07:51:58;;;;;;;4.03;3.35;;;26.40;47.50;;;;;;5094367;28;20431;-51
2021/06/11 07:54:24;;;;;;;4.13;3.67;;;26.40;47.50;;;;;;5094895;28;20051;-52
2021/06/11 07:56:50;;;;;;;4.05;3.67;;;26.40;47.50;;;;;;5094811;28;20061;-50
2021/06/11 07:59:16;;;;;;;3.90;3.50;;;26.40;47.50;;;;;;5093049;28;20028;-51
2021/06/11 08:01:42;;;;;;;4.72;4.20;;;26.40;47.50;;;;;;5092641;28;20019;-48
2021/06/11 08:04:08;;;;;;;4.65;4.03;;;26.40;47.50;;;;;;5093510;28;20531;-48
2021/06/11 08:06:34;;;;;;;4.45;3.65;;;26.40;47.50;;;;;;5091615;28;20111;-53
2021/06/11 08:09:00;;;;;;;4.20;3.72;;;26.40;47.50;;;;;;5085759;28;20053;-52
2021/06/11 08:11:26;;;;;;;4.35;3.63;;;26.40;47.60;;;;;;5089147;28;20487;-52
2021/06/11 08:13:51;;;;;;;4.85;4.25;;;26.40;47.50;;;;;;5086546;28;20028;-49
2021/06/11 08:16:18;;;;;;;4.20;3.80;;;26.40;47.60;;;;;;5092732;28;20153;-48
2021/06/11 08:18:43;;;;;;;4.93;4.13;;;26.40;47.60;;;;;;5091239;28;20354;-53
2021/06/11 08:21:09;;;;;;;5.15;4.50;;;26.40;47.60;;;;;;5091713;28;20032;-52
2021/06/11 08:23:35;;;;;;;4.78;4.07;;;26.50;47.70;;;;;;5092409;28;20496;-49
2021/06/11 08:26:01;;;;;;;4.60;3.95;;;26.50;47.70;;;;;;5093609;28;20024;-49
2021/06/11 08:28:27;;;;;;;4.45;3.88;;;26.50;47.70;;;;;;5094095;28;20443;-51
2021/06/11 08:30:53;;;;;;;4.18;3.78;;;26.50;47.60;;;;;;5093157;28;20028;-51
2021/06/11 08:33:19;;;;;;;4.40;4.00;;;26.50;47.60;;;;;;5093884;28;20047;-50
2021/06/11 08:35:44;;;;;;;3.95;3.55;;;26.50;47.50;;;;;;5094190;28;20020;-48
2021/06/11 08:38:12;;;;;;;3.70;3.40;;;26.50;47.50;;;;;;5093478;28;20419;-49
2021/06/11 08:40:38;;;;;;;5.00;4.50;;;26.50;47.50;;;;;;5093598;28;20028;-48
2021/06/11 08:43:05;;;;;;;4.35;3.67;;;26.50;47.50;;;;;;5089943;28;20043;-54
2021/06/11 08:45:31;;;;;;;3.95;3.13;;;26.50;48.10;;;;;;5092467;28;20360;-51
2021/06/11 08:47:58;;;;;;;4.65;3.70;;;26.60;47.50;;;;;;5093039;28;20024;-50
2021/06/11 08:50:30;;;;;;;3.95;3.33;;;26.50;47.40;;;;;;5094598;28;20089;-51
2021/06/11 08:52:58;;;;;;;3.58;2.92;;;26.60;47.40;;;;;;5095203;28;20032;-52
2021/06/11 08:55:25;;;;;;;3.10;2.80;;;26.60;47.30;;;;;;5095053;28;20031;-48
2021/06/11 08:57:51;;;;;;;3.42;2.60;;;26.60;47.20;;;;;;5095100;28;20074;-48
2021/06/11 09:00:17;;;;;;;2.78;2.50;;;26.60;47.80;;;;;;5095092;28;20063;-49
2021/06/11 09:03:08;;;;;;;2.92;2.63;;;26.60;47.10;;;;;;5094696;28;20027;-48
2021/06/11 09:05:35;;;;;;;2.67;2.20;;;26.70;47.10;;;;;;5084857;28;20024;-46
2021/06/11 09:08:14;;;;;;;2.40;1.98;;;26.70;47.10;;;;;;5094870;28;20161;-49
2021/06/11 09:10:41;;;;;;;2.25;1.90;;;26.70;47.00;;;;;;5093438;28;20052;-47
2021/06/11 09:13:06;;;;;;;2.30;2.10;;;26.70;47.00;;;;;;5094485;28;20426;-48
2021/06/11 09:15:32;;;;;;;2.70;2.20;;;26.70;47.00;;;;;;5094936;28;20028;-50
2021/06/11 09:17:58;;;;;;;2.33;2.13;;;26.70;46.90;;;;;;5094620;28;20134;-51
2021/06/11 09:20:31;;;;;;;2.20;2.00;;;26.70;46.90;;;;;;5094536;28;20040;-51
2021/06/11 09:23:00;;;;;;;2.33;2.05;;;26.70;46.90;;;;;;5093828;28;20028;-47
2021/06/11 09:25:30;;;;;;;2.45;2.13;;;26.70;46.90;;;;;;5094767;28;20831;-49
2021/06/11 09:28:10;;;;;;;1.92;1.77;;;26.70;46.80;;;;;;5094503;28;20470;-53
2021/06/11 09:30:38;;;;;;;2.45;1.85;;;26.70;46.80;;;;;;5094478;28;20071;-48
2021/06/11 09:33:07;;;;;;;2.42;2.05;;;26.80;46.80;;;;;;5094432;28;20039;-53
2021/06/11 09:35:55;;;;;;;3.05;2.28;;;26.80;46.80;;;;;;5093726;28;20042;-51
2021/06/11 09:38:26;;;;;;;2.30;1.98;;;26.80;47.40;;;;;;5093587;28;20032;-49
2021/06/11 09:40:58;;;;;;;2.13;1.92;;;26.80;46.80;;;;;;5094188;28;20032;-48
2021/06/11 09:43:26;;;;;;;2.67;2.20;;;26.80;46.70;;;;;;5094563;28;20342;-49
2021/06/11 09:46:09;;;;;;;2.10;1.90;;;26.80;46.70;;;;;;5094125;28;20027;-52
2021/06/11 09:48:53;;;;;;;2.20;1.88;;;26.80;46.70;;;;;;5094434;28;20028;-50
2021/06/11 09:51:27;;;;;;;2.40;1.90;;;26.80;46.70;;;;;;5093241;28;20036;-52
2021/06/11 09:53:53;;;;;;;2.42;1.83;;;26.80;46.70;;;;;;5093854;28;20481;-52
2021/06/11 09:56:27;;;;;;;2.38;2.05;;;26.80;46.70;;;;;;5094125;28;20032;-51
2021/06/11 09:58:56;;;;;;;2.65;1.90;;;26.80;46.60;;;;;;5093440;28;20420;-48
2021/06/11 10:01:22;;;;;;;1.95;1.77;;;26.90;46.70;;;;;;5093572;28;20111;-50
2021/06/11 10:03:50;;;;;;;2.35;1.90;;;26.90;46.70;;;;;;5093022;28;20466;-49
2021/06/11 10:06:23;;;;;;;2.45;1.85;;;26.80;46.70;;;;;;5094394;28;20028;-52
2021/06/11 10:08:51;;;;;;;2.00;1.80;;;26.90;46.70;;;;;;5093445;28;20111;-51
2021/06/11 10:11:25;;;;;;;1.92;1.80;;;26.90;46.70;;;;;;5093664;28;20364;-50
2021/06/11 10:13:53;;;;;;;2.42;2.22;;;26.90;46.70;;;;;;5094068;28;20032;-48
2021/06/11 10:16:19;;;;;;;2.30;1.90;;;26.90;46.60;;;;;;5073758;28;20094;-46
2021/06/11 10:18:46;;;;;;;2.00;1.80;;;26.90;46.60;;;;;;5073490;28;20115;-51
2021/06/11 10:21:12;;;;;;;2.00;1.77;;;26.90;46.60;;;;;;5093077;28;20036;-46
2021/06/11 10:23:39;;;;;;;2.70;2.17;;;27.00;46.70;;;;;;5090338;28;20089;-50
2021/06/11 10:26:07;;;;;;;2.08;1.85;;;26.90;46.60;;;;;;5093829;28;20028;-49
2021/06/11 10:28:42;;;;;;;2.13;1.92;;;27.00;46.70;;;;;;5094042;28;20055;-49
2021/06/11 10:31:15;;;;;;;2.10;1.90;;;27.00;46.70;;;;;;5087642;28;20130;-50
2021/06/11 10:33:43;;;;;;;2.17;1.80;;;27.00;46.80;;;;;;5088734;28;20028;-51
2021/06/11 10:36:32;;;;;;;3.20;2.15;;;27.00;46.80;;;;;;5093279;28;20028;-52
2021/06/11 10:39:02;;;;;;;2.22;2.03;;;27.00;46.80;;;;;;5093585;28;20106;-49
2021/06/11 10:41:58;;;;;;;2.05;1.88;;;27.00;46.80;;;;;;5086260;28;20040;-50
2021/06/11 10:44:46;;;;;;;2.95;2.65;;;27.00;46.80;;;;;;5082367;28;20053;-54
2021/06/11 10:47:18;;;;;;;2.63;2.42;;;27.10;46.90;;;;;;5089806;28;20412;-50
2021/06/11 10:49:56;;;;;;;2.42;2.10;;;27.10;46.90;;;;;;5088743;28;20047;-50
2021/06/11 10:52:35;;;;;;;2.20;2.00;;;27.10;47.50;;;;;;5093402;28;20043;-50
2021/06/11 10:55:19;;;;;;;2.40;2.13;;;27.10;46.80;;;;;;5091387;28;20055;-51
2021/06/11 10:57:58;;;;;;;2.10;1.90;;;27.20;46.80;;;;;;5092493;28;20050;-48
2021/06/11 11:00:34;;;;;;;2.08;1.88;;;27.10;46.80;;;;;;5092310;28;20036;-51
2021/06/11 11:03:02;;;;;;;2.22;1.95;;;27.10;46.80;;;;;;5088638;28;20107;-48
2021/06/11 11:05:29;;;;;;;2.20;2.00;;;27.20;46.80;;;;;;5098797;28;20032;-52
2021/06/11 11:07:56;;;;;;;2.47;2.28;;;27.10;46.70;;;;;;5082762;28;20038;-50
2021/06/11 11:10:47;;;;;;;2.67;2.40;;;27.20;46.80;;;;;;5091807;28;20032;-49
2021/06/11 11:13:17;;;;;;;2.38;2.17;;;27.20;46.70;;;;;;5093006;28;20044;-50
2021/06/11 11:15:44;;;;;;;2.65;2.45;;;27.20;46.70;;;;;;5093165;28;20347;-46
2021/06/11 11:18:11;;;;;;;2.63;2.20;;;27.20;46.60;;;;;;5085845;28;20090;-46
2021/06/11 11:20:39;;;;;;;2.75;2.50;;;27.20;46.50;;;;;;5087995;28;20333;-53
2021/06/11 11:23:07;;;;;;;3.42;2.58;;;27.20;46.50;;;;;;5095692;28;20030;-50
2021/06/11 11:25:34;;;;;;;3.08;2.50;;;27.20;46.60;;;;;;5089510;28;20085;-47
2021/06/11 11:28:00;;;;;;;2.72;2.53;;;27.20;46.50;;;;;;5096180;28;20335;-52
2021/06/11 11:30:28;;;;;;;2.53;2.33;;;27.20;46.50;;;;;;5094402;28;20036;-48
2021/06/11 11:32:55;;;;;;;3.38;2.60;;;27.20;46.50;;;;;;5095943;28;20458;-47
2021/06/11 11:35:23;;;;;;;2.67;2.47;;;27.20;46.40;;;;;;5094432;28;20028;-45
2021/06/11 11:37:51;;;;;;;2.45;2.25;;;27.20;46.40;;;;;;5096871;28;20081;-46
2021/06/11 11:40:18;;;;;;;2.70;2.28;;;27.20;46.30;;;;;;5095390;28;20348;-52
2021/06/11 11:42:44;;;;;;;3.33;2.92;;;27.20;46.30;;;;;;5096570;28;20066;-48
2021/06/11 11:45:11;;;;;;;2.47;2.28;;;27.20;46.20;;;;;;5095487;28;20347;-51
2021/06/11 11:47:37;;;;;;;2.95;2.50;;;27.20;46.20;;;;;;5096278;28;20028;-47
2021/06/11 11:50:04;;;;;;;2.63;2.42;;;27.20;46.20;;;;;;5096043;28;20032;-47
2021/06/11 11:52:34;;;;;;;3.08;2.42;;;27.20;46.10;;;;;;5096515;28;20107;-48
2021/06/11 11:55:02;;;;;;;2.60;2.40;;;27.20;46.10;;;;;;5095631;28;20616;-52
2021/06/11 11:57:28;;;;;;;2.75;2.47;;;27.20;46.10;;;;;;5094699;28;20047;-48
2021/06/11 11:59:54;;;;;;;2.65;2.38;;;27.20;46.00;;;;;;5095505;28;20467;-50
2021/06/11 12:02:20;;;;;;;2.83;2.58;;;27.20;46.00;;;;;;5095723;28;20505;-47
2021/06/11 12:04:46;;;;;;;3.55;2.42;;;27.20;46.10;;;;;;5095403;28;20047;-49
2021/06/11 12:07:12;;;;;;;3.03;2.30;;;27.30;46.20;;;;;;5094192;28;20036;-46
2021/06/11 12:09:38;;;;;;;4.50;2.45;;;27.30;46.20;;;;;;5095768;28;20047;-45
2021/06/11 12:12:04;;;;;;;2.72;2.28;;;27.30;46.00;;;;;;5094110;28;20129;-47
2021/06/11 12:14:30;;;;;;;2.95;2.25;;;27.30;45.90;;;;;;5091279;28;20029;-47
2021/06/11 12:16:56;;;;;;;2.88;2.25;;;27.30;45.80;;;;;;5096203;28;20123;-47
2021/06/11 12:19:22;;;;;;;2.28;2.08;;;27.30;45.80;;;;;;5092250;28;20024;-45
2021/06/11 12:21:48;;;;;;;3.10;2.78;;;27.30;45.70;;;;;;5085032;28;20036;-46
2021/06/11 12:24:15;;;;;;;4.32;3.20;;;27.30;45.70;;;;;;5095236;28;20023;-46
2021/06/11 12:26:41;;;;;;;2.95;2.65;;;27.30;45.60;;;;;;5095004;28;20023;-50
2021/06/11 12:29:07;;;;;;;4.10;2.80;;;27.30;45.60;;;;;;5094631;28;20036;-49
2021/06/11 12:31:34;;;;;;;3.00;2.70;;;27.30;45.60;;;;;;5095420;28;20470;-49
2021/06/11 12:34:00;;;;;;;4.32;3.33;;;27.30;45.50;;;;;;5095264;28;20028;-48
2021/06/11 12:36:26;;;;;;;5.35;4.40;;;27.40;45.70;;;;;;5094511;28;20046;-47
2021/06/11 12:38:51;;;;;;;6.25;5.45;;;27.40;45.70;;;;;;5094592;28;20395;-48
2021/06/11 12:41:17;;;;;;;6.70;6.00;;;27.40;45.70;;;;;;5094250;28;20119;-51
2021/06/11 12:46:27;;;;;;;;;;;27.40;45.70;;;;;;5092059;28;20474;-45
2021/06/11 12:48:54;;;;;;;8.93;7.65;;;27.40;45.70;;;;;;5093773;28;19908;-46
2021/06/11 12:51:22;;;;;;;11.98;9.82;;;27.40;45.70;;;;;;5093252;28;20351;-46
2021/06/11 12:53:47;;;;;;;13.30;11.98;;;27.40;45.60;;;;;;5094153;28;20028;-45
2021/06/11 12:56:16;;;;;;;13.60;12.00;;;27.40;45.60;;;;;;5094122;28;20074;-46
2021/06/11 12:58:41;;;;;;;13.30;11.23;;;27.30;45.50;;;;;;5093558;28;20066;-47